Time;durP1;ratioP1;P1;durP2;ratioP2;P2;SDS_P1;SDS_P2;PMS_P1;PMS_P2;Temp;Humidity;BMP_temperature;BMP_pressure;BME280_temperature;BME280_humidity;BME280_pressure;Samples;Min_cycle;Max_cycle;Signal;HPM_P1;HPM_P2
2022/08/30 00:03:07;;;;;;;6.63;4.10;;;;;;;23.39;70.64;98571.03;5027750;28;20098;-61
2022/08/30 00:05:33;;;;;;;6.85;4.00;;;;;;;23.39;70.94;98586.97;5029790;28;20029;-60
2022/08/30 00:07:59;;;;;;;7.53;3.95;;;;;;;23.44;70.34;98582.81;5006419;28;20550;-61
2022/08/30 00:10:27;;;;;;;6.95;3.60;;;;;;;23.19;70.31;98552.78;5020163;28;20415;-59
2022/08/30 00:12:53;;;;;;;7.57;4.18;;;;;;;23.26;70.78;98552.69;5032995;28;20714;-60
2022/08/30 00:15:19;;;;;;;7.72;4.32;;;;;;;23.26;70.88;98591.69;5021817;28;20024;-60
2022/08/30 00:17:45;;;;;;;7.50;3.92;;;;;;;23.14;71.57;98581.81;5029357;28;20021;-61
2022/08/30 00:20:14;;;;;;;5.68;3.85;;;;;;;23.05;70.73;98561.19;5034790;28;20033;-60
2022/08/30 00:22:40;;;;;;;8.63;4.13;;;;;;;23.32;70.64;98599.50;5018501;28;20028;-60
2022/08/30 00:25:06;;;;;;;7.75;4.18;;;;;;;23.09;70.90;98580.91;5019128;28;20037;-61
2022/08/30 00:27:32;;;;;;;7.55;3.97;;;;;;;22.90;72.70;98596.03;4951243;28;20552;-61
2022/08/30 00:29:57;;;;;;;6.25;4.20;;;;;;;22.84;72.92;98598.53;5034976;28;20032;-61
2022/08/30 00:32:23;;;;;;;10.60;4.60;;;;;;;22.92;73.60;98588.66;5031193;28;20017;-61
2022/08/30 00:34:50;;;;;;;8.00;4.20;;;;;;;23.08;73.15;98582.75;5031111;28;20021;-60
2022/08/30 00:37:16;;;;;;;7.68;4.85;;;;;;;23.11;73.49;98573.50;5028031;28;20120;-60
2022/08/30 00:39:41;;;;;;;7.82;4.07;;;;;;;23.17;73.29;98569.97;5031376;28;20094;-60
2022/08/30 00:42:08;;;;;;;7.15;4.07;;;;;;;23.18;73.67;98567.09;5037775;28;20029;-60
2022/08/30 00:44:33;;;;;;;7.57;4.30;;;;;;;22.98;73.33;98546.16;5015888;28;20343;-61
2022/08/30 00:46:58;;;;;;;5.93;4.05;;;;;;;23.10;73.13;98562.09;4958051;28;21358;-60
2022/08/30 00:49:24;;;;;;;6.55;4.00;;;;;;;22.93;73.55;98535.41;5032009;28;20102;-59
2022/08/30 00:51:50;;;;;;;6.63;4.05;;;;;;;23.22;73.32;98564.81;5035594;28;20059;-60
2022/08/30 00:54:16;;;;;;;8.10;4.10;;;;;;;23.00;73.27;98545.94;5023198;28;20029;-59
2022/08/30 00:56:41;;;;;;;7.88;4.22;;;;;;;22.97;72.99;98543.72;5016961;28;20106;-59
2022/08/30 00:59:07;;;;;;;6.30;3.85;;;;;;;23.23;73.18;98587.63;5056742;28;20064;-60
2022/08/30 01:01:34;;;;;;;7.35;4.13;;;;;;;23.18;73.62;98585.66;5028384;28;20556;-60
2022/08/30 01:04:00;;;;;;;6.70;4.40;;;;;;;23.00;73.68;98552.03;5027979;28;20042;-61
2022/08/30 01:06:26;;;;;;;5.75;4.00;;;;;;;22.95;73.71;98549.25;5032065;28;20046;-60
2022/08/30 01:08:51;;;;;;;6.47;4.47;;;;;;;23.18;74.37;98590.97;4960434;28;20029;-60
2022/08/30 01:11:19;;;;;;;5.82;3.80;;;;;;;23.11;73.93;98584.13;5030646;28;20356;-60
2022/08/30 01:13:46;;;;;;;5.93;3.90;;;;;;;23.02;74.13;98587.09;5018435;28;20476;-59
2022/08/30 01:16:12;;;;;;;6.47;3.90;;;;;;;22.91;74.64;98585.22;5029976;28;20334;-61
2022/08/30 01:18:38;;;;;;;8.57;4.32;;;;;;;22.86;74.86;98594.88;5032026;28;20072;-60
2022/08/30 01:21:06;;;;;;;7.30;4.28;;;;;;;22.84;76.03;98605.69;5032766;28;20040;-59
2022/08/30 01:23:34;;;;;;;6.82;3.92;;;;;;;22.80;76.74;98609.84;5026934;28;20025;-60
2022/08/30 01:26:01;;;;;;;7.93;4.53;;;;;;;22.69;79.18;98622.00;5009731;28;20065;-59
2022/08/30 01:28:28;;;;;;;6.50;4.55;;;;;;;22.79;79.26;98598.41;4947771;28;20041;-58
2022/08/30 01:30:53;;;;;;;6.95;4.43;;;;;;;22.76;79.99;98600.69;5018109;28;20296;-59
2022/08/30 01:33:19;;;;;;;8.30;4.38;;;;;;;22.82;80.32;98600.63;5033778;28;20440;-59
2022/08/30 01:35:55;;;;;;;8.10;4.32;;;;;;;22.89;80.37;98597.88;5028370;28;20344;-59
2022/08/30 01:38:23;;;;;;;7.45;4.38;;;;;;;22.78;80.04;98572.94;5014863;28;20040;-59
2022/08/30 01:40:49;;;;;;;5.93;4.27;;;;;;;23.10;78.72;98609.84;5026506;28;20088;-59
2022/08/30 01:43:16;;;;;;;6.55;3.95;;;;;;;22.84;79.02;98565.94;5029110;28;20278;-60
2022/08/30 01:45:41;;;;;;;8.40;4.10;;;;;;;22.92;79.34;98597.41;5020152;28;20039;-59
2022/08/30 01:48:08;;;;;;;6.97;4.28;;;;;;;22.76;79.36;98568.88;4967320;28;20029;-60
2022/08/30 01:50:33;;;;;;;6.50;4.45;;;;;;;22.95;80.07;98585.56;5032160;28;20274;-61
2022/08/30 01:52:59;;;;;;;5.60;3.80;;;;;;;23.08;79.03;98593.34;5033708;28;20103;-59
2022/08/30 01:55:24;;;;;;;7.50;3.90;;;;;;;22.81;79.42;98555.78;5036566;28;20032;-61
2022/08/30 01:57:49;;;;;;;5.70;4.40;;;;;;;23.01;80.37;98592.59;5035272;28;20357;-60
2022/08/30 02:00:16;;;;;;;5.65;4.20;;;;;;;22.91;79.98;98557.88;5033193;28;20816;-59
2022/08/30 02:02:42;;;;;;;6.70;4.32;;;;;;;23.08;80.19;98577.44;5033060;28;20320;-60
2022/08/30 02:05:09;;;;;;;7.50;4.20;;;;;;;23.07;80.05;98573.16;5028913;28;20512;-59
2022/08/30 02:07:34;;;;;;;7.07;3.90;;;;;;;23.14;79.83;98581.81;4963286;28;20507;-59
2022/08/30 02:09:59;;;;;;;7.05;4.32;;;;;;;23.00;79.63;98551.25;5032457;28;20033;-59
2022/08/30 02:12:25;;;;;;;6.43;3.72;;;;;;;23.16;79.31;98577.13;5033383;28;20120;-60
2022/08/30 02:14:50;;;;;;;6.03;3.80;;;;;;;22.99;80.06;98546.94;5030081;28;20124;-59
2022/08/30 02:17:18;;;;;;;5.68;3.90;;;;;;;23.16;79.60;98565.69;5036190;28;20309;-58
2022/08/30 02:19:44;;;;;;;7.35;4.20;;;;;;;23.16;79.84;98563.88;5031566;28;20035;-58
2022/08/30 02:22:09;;;;;;;7.60;4.03;;;;;;;23.12;79.52;98573.28;5037534;28;20033;-59
2022/08/30 02:24:35;;;;;;;5.43;3.53;;;;;;;23.04;79.33;98557.72;5017924;28;20040;-59
2022/08/30 02:27:01;;;;;;;5.30;3.85;;;;;;;23.05;79.04;98572.59;5002241;28;20202;-60
2022/08/30 02:29:26;;;;;;;6.00;3.83;;;;;;;23.02;79.30;98573.81;5001377;28;20535;-58
2022/08/30 02:31:51;;;;;;;5.40;4.00;;;;;;;22.97;80.10;98571.03;5029993;28;20284;-60
2022/08/30 02:34:17;;;;;;;6.38;4.47;;;;;;;23.11;79.71;98584.94;5033778;28;20029;-59
2022/08/30 02:36:43;;;;;;;5.68;4.22;;;;;;;23.13;80.05;98584.72;5038520;28;20033;-59
2022/08/30 02:39:11;;;;;;;6.60;4.10;;;;;;;23.07;79.56;98565.22;5032030;28;20039;-60
2022/08/30 02:41:37;;;;;;;5.68;3.97;;;;;;;23.10;79.54;98583.31;5018170;28;20057;-59
2022/08/30 02:44:03;;;;;;;6.55;4.40;;;;;;;23.19;78.83;98575.84;5028292;28;20033;-60
2022/08/30 02:46:28;;;;;;;6.55;3.92;;;;;;;23.27;78.17;98564.09;5010793;28;20028;-60
2022/08/30 02:48:54;;;;;;;6.57;3.80;;;;;;;23.31;78.40;98565.25;4941713;28;20036;-59
2022/08/30 02:51:19;;;;;;;6.60;3.90;;;;;;;23.33;79.20;98565.88;5033021;28;20834;-59
2022/08/30 02:53:45;;;;;;;6.10;4.03;;;;;;;23.07;78.82;98536.03;5035923;28;20041;-61
2022/08/30 02:56:12;;;;;;;5.53;3.72;;;;;;;23.09;79.03;98557.03;5030054;28;20033;-60
2022/08/30 02:58:38;;;;;;;5.70;3.95;;;;;;;23.01;80.42;98564.25;5030225;28;20021;-63
2022/08/30 03:01:04;;;;;;;6.13;4.40;;;;;;;22.92;80.98;98564.78;5028411;28;20025;-59
2022/08/30 03:03:30;;;;;;;8.05;4.10;;;;;;;22.99;81.42;98566.31;5035947;28;20095;-59
2022/08/30 03:05:56;;;;;;;6.00;4.50;;;;;;;23.05;81.65;98554.03;5009861;28;20102;-60
2022/08/30 03:08:22;;;;;;;5.43;3.90;;;;;;;23.01;81.28;98552.84;5015724;28;20147;-59
2022/08/30 03:10:47;;;;;;;6.10;4.25;;;;;;;22.79;81.41;98539.28;5028652;28;20530;-59
2022/08/30 03:13:13;;;;;;;5.97;4.05;;;;;;;23.00;81.15;98565.28;5060109;28;20068;-60
2022/08/30 03:15:39;;;;;;;6.95;4.28;;;;;;;22.95;81.19;98553.75;5032747;28;20020;-60
2022/08/30 03:18:04;;;;;;;6.25;4.10;;;;;;;22.99;80.92;98553.06;5033564;28;20052;-59
2022/08/30 03:20:30;;;;;;;6.82;4.47;;;;;;;22.97;80.96;98554.34;5045558;28;20057;-60
2022/08/30 03:22:56;;;;;;;6.25;4.15;;;;;;;23.05;81.59;98551.38;5031108;28;20580;-59
2022/08/30 03:25:21;;;;;;;6.25;3.97;;;;;;;23.01;82.06;98553.63;5030975;28;21224;-60
2022/08/30 03:27:48;;;;;;;6.30;3.88;;;;;;;22.94;82.04;98552.13;5036915;28;20095;-59
2022/08/30 03:30:13;;;;;;;7.10;4.43;;;;;;;22.95;81.93;98553.75;5030752;28;20058;-59
2022/08/30 03:32:40;;;;;;;6.88;4.18;;;;;;;22.99;82.17;98557.56;5033305;28;20029;-59
2022/08/30 03:35:06;;;;;;;6.38;4.30;;;;;;;22.90;82.43;98559.72;5031746;28;20656;-59
2022/08/30 03:37:32;;;;;;;5.63;4.03;;;;;;;22.92;82.48;98565.59;5032339;28;20068;-61
2022/08/30 03:39:58;;;;;;;5.90;4.38;;;;;;;22.92;81.46;98560.28;5026775;28;20064;-59
2022/08/30 03:42:23;;;;;;;6.38;4.97;;;;;;;22.97;81.54;98562.28;5035176;28;20040;-60
2022/08/30 03:44:48;;;;;;;6.97;4.35;;;;;;;22.95;82.25;98561.72;5029162;28;20029;-59
2022/08/30 03:47:14;;;;;;;6.05;4.40;;;;;;;22.94;82.75;98565.38;5028324;28;20687;-60
2022/08/30 03:49:39;;;;;;;6.60;4.18;;;;;;;22.77;82.42;98541.38;5028450;28;20017;-60
2022/08/30 03:52:05;;;;;;;7.32;4.25;;;;;;;22.93;82.86;98569.88;5032977;28;20043;-60
2022/08/30 03:54:30;;;;;;;6.00;4.38;;;;;;;23.00;81.91;98577.75;5033946;28;20033;-60
2022/08/30 03:56:56;;;;;;;10.07;4.80;;;;;;;22.91;83.52;98571.13;5037947;28;20403;-59
2022/08/30 03:59:21;;;;;;;6.95;4.32;;;;;;;22.81;83.92;98577.78;5030188;28;20734;-59
2022/08/30 04:01:47;;;;;;;7.63;4.45;;;;;;;22.82;83.96;98576.75;5038303;28;20040;-59
2022/08/30 04:04:13;;;;;;;6.15;4.43;;;;;;;22.72;84.58;98576.47;5035270;28;20780;-59
2022/08/30 04:06:39;;;;;;;7.75;4.30;;;;;;;22.78;84.63;98588.00;5014357;28;20091;-60
2022/08/30 04:09:05;;;;;;;6.55;4.60;;;;;;;22.77;84.99;98595.16;5027262;28;20362;-60
2022/08/30 04:11:30;;;;;;;6.55;4.38;;;;;;;22.72;85.71;98596.88;5020260;28;20017;-59
2022/08/30 04:13:56;;;;;;;5.78;4.47;;;;;;;22.71;85.77;98598.72;5032255;28;20094;-60
2022/08/30 04:16:22;;;;;;;7.82;4.47;;;;;;;22.61;85.43;98572.75;5023286;28;20025;-60
2022/08/30 04:18:48;;;;;;;9.05;4.82;;;;;;;22.81;85.37;98600.84;5018553;28;20021;-59
2022/08/30 04:21:14;;;;;;;6.57;4.60;;;;;;;22.60;85.32;98570.34;5025133;28;20030;-60
2022/08/30 04:23:40;;;;;;;5.68;4.22;;;;;;;22.87;85.42;98607.88;5034213;28;20024;-60
2022/08/30 04:26:06;;;;;;;5.95;4.38;;;;;;;22.92;85.65;98608.00;5022802;28;20503;-60
2022/08/30 04:28:32;;;;;;;6.88;4.65;;;;;;;22.96;84.85;98611.03;5030853;28;20104;-60
2022/08/30 04:30:58;;;;;;;6.00;4.50;;;;;;;22.96;85.22;98609.22;5029205;28;20051;-60
2022/08/30 04:33:23;;;;;;;8.15;4.57;;;;;;;22.72;84.45;98568.53;5019280;28;20455;-60
2022/08/30 04:35:49;;;;;;;7.57;5.07;;;;;;;22.98;84.23;98612.44;5030669;28;20662;-60
2022/08/30 04:38:15;;;;;;;6.20;4.43;;;;;;;22.73;85.23;98583.41;5029013;28;20034;-60
2022/08/30 04:40:42;;;;;;;6.85;4.70;;;;;;;22.68;85.28;98595.72;5029150;28;20543;-60
2022/08/30 04:43:08;;;;;;;6.88;4.93;;;;;;;22.63;85.42;98589.25;5033399;28;20578;-61
2022/08/30 04:45:34;;;;;;;6.28;4.70;;;;;;;22.89;84.36;98620.91;5030462;28;20040;-60
2022/08/30 04:47:59;;;;;;;6.32;4.57;;;;;;;22.85;84.33;98617.91;5031394;28;20329;-60
2022/08/30 04:50:25;;;;;;;6.50;4.70;;;;;;;22.95;84.01;98633.28;5058952;28;20915;-60
2022/08/30 04:52:50;;;;;;;6.95;4.18;;;;;;;22.99;83.82;98637.09;5021382;28;20076;-61
2022/08/30 04:55:16;;;;;;;8.23;4.47;;;;;;;22.96;83.38;98629.59;5032118;28;20029;-59
2022/08/30 04:57:42;;;;;;;7.43;4.38;;;;;;;22.68;83.93;98599.16;5032025;28;20033;-59
2022/08/30 05:00:10;;;;;;;6.93;4.40;;;;;;;22.81;84.28;98644.03;5023344;28;20025;-60
2022/08/30 05:02:37;;;;;;;6.88;5.00;;;;;;;22.89;83.91;98634.16;5027651;28;20029;-60
2022/08/30 05:07:47;;;;;;;6.40;4.32;;;;;;;22.81;83.69;98652.00;5026171;28;20114;-60
2022/08/30 05:10:13;;;;;;;6.60;4.68;;;;;;;22.82;84.81;98653.63;5025553;28;20508;-60
2022/08/30 05:12:39;;;;;;;6.78;4.88;;;;;;;22.88;84.67;98659.88;5024901;28;20027;-59
2022/08/30 05:15:05;;;;;;;7.18;4.70;;;;;;;22.62;84.78;98621.25;5012000;28;20046;-60
2022/08/30 05:17:31;;;;;;;8.02;5.00;;;;;;;22.84;84.12;98651.56;5013466;28;20184;-60
2022/08/30 05:19:56;;;;;;;6.72;4.55;;;;;;;22.75;84.42;98654.75;5004459;28;20037;-60
2022/08/30 05:22:22;;;;;;;7.45;4.95;;;;;;;22.71;84.12;98657.03;5020716;28;20029;-59
2022/08/30 05:24:48;;;;;;;5.97;4.32;;;;;;;22.75;83.76;98665.34;5026176;28;20723;-60
2022/08/30 05:27:14;;;;;;;7.78;4.60;;;;;;;22.64;84.67;98658.94;5030530;28;20021;-60
2022/08/30 05:29:40;;;;;;;7.53;4.53;;;;;;;22.64;84.16;98664.25;5018966;28;20056;-61
2022/08/30 05:32:07;;;;;;;7.32;4.53;;;;;;;22.61;82.98;98668.13;5025302;28;20034;-60
2022/08/30 05:34:33;;;;;;;7.60;5.05;;;;;;;22.57;82.85;98663.50;5012952;28;20284;-60
2022/08/30 05:36:59;;;;;;;8.40;4.43;;;;;;;22.68;81.99;98662.75;5024664;28;20077;-60
2022/08/30 05:39:24;;;;;;;7.55;4.50;;;;;;;22.58;81.81;98654.50;5027734;28;20037;-59
2022/08/30 05:41:49;;;;;;;5.63;4.15;;;;;;;22.64;81.46;98665.03;5028469;28;20026;-60
2022/08/30 05:44:15;;;;;;;5.80;4.07;;;;;;;22.68;81.24;98677.88;5027844;28;20041;-59
2022/08/30 05:46:44;;;;;;;6.60;4.55;;;;;;;22.59;81.55;98661.44;5036555;28;21280;-61
2022/08/30 05:49:10;;;;;;;;;;;;;;;22.63;80.94;98681.16;5036647;28;20739;-59
2022/08/30 05:51:39;;;;;;;7.13;4.93;;;;;;;22.65;81.15;98673.78;5035293;28;19919;-61
2022/08/30 05:54:05;;;;;;;6.10;4.18;;;;;;;22.41;80.82;98636.56;5030972;28;20036;-61
2022/08/30 05:56:34;;;;;;;6.97;4.95;;;;;;;22.47;80.62;98640.19;5036207;28;20028;-61
2022/08/30 05:59:00;;;;;;;14.05;5.13;;;;;;;22.68;80.57;98678.66;5017674;28;20032;-61
2022/08/30 06:01:36;;;;;;;52.90;7.10;;;;;;;22.68;80.63;98669.91;5029024;28;20029;-59
2022/08/30 06:04:03;;;;;;;8.77;4.63;;;;;;;22.45;80.68;98645.72;5039768;28;20530;-60
2022/08/30 06:06:31;;;;;;;10.32;5.10;;;;;;;22.52;80.29;98648.25;5019188;28;20119;-60
2022/08/30 06:08:57;;;;;;;6.65;4.28;;;;;;;22.61;80.24;98667.34;5035191;28;20690;-59
2022/08/30 06:11:25;;;;;;;6.15;4.30;;;;;;;22.41;80.08;98647.16;5033721;28;20029;-59
2022/08/30 06:13:52;;;;;;;6.95;4.43;;;;;;;22.60;80.10;98679.78;5017251;28;20128;-60
2022/08/30 06:16:19;;;;;;;12.05;4.75;;;;;;;22.61;79.94;98672.63;5021812;28;20025;-60
2022/08/30 06:18:45;;;;;;;9.13;4.50;;;;;;;22.64;80.26;98677.50;5016942;28;20025;-60
2022/08/30 06:21:22;;;;;;;7.05;4.47;;;;;;;22.67;80.30;98682.38;5029973;28;20110;-61
2022/08/30 06:23:48;;;;;;;21.83;5.40;;;;;;;22.70;79.97;98681.91;5022488;28;20044;-61
2022/08/30 06:26:13;;;;;;;32.60;6.22;;;;;;;22.77;79.04;98687.13;5021328;28;20029;-62
2022/08/30 06:28:39;;;;;;;7.45;4.30;;;;;;;22.74;79.00;98685.72;5025254;28;20025;-60
2022/08/30 06:31:06;;;;;;;7.00;4.60;;;;;;;22.79;79.18;98685.88;5027153;28;20033;-61
2022/08/30 06:33:32;;;;;;;6.20;4.47;;;;;;;22.65;78.99;98656.09;5019476;28;20602;-59
2022/08/30 06:36:02;;;;;;;5.70;4.15;;;;;;;22.84;78.58;98677.25;5030753;28;20025;-61
2022/08/30 06:38:28;;;;;;;6.57;4.45;;;;;;;22.90;78.38;98680.84;5018704;28;20033;-60
2022/08/30 06:40:53;;;;;;;7.07;4.45;;;;;;;22.98;78.37;98673.41;5039125;28;20028;-62
2022/08/30 06:43:18;;;;;;;6.47;4.22;;;;;;;22.98;79.18;98677.88;5037451;28;20473;-60
2022/08/30 06:45:44;;;;;;;13.60;3.92;;;;;;;22.93;79.68;98656.56;5033498;28;20032;-60
2022/08/30 06:48:09;;;;;;;6.55;4.40;;;;;;;23.17;77.90;98682.16;5037586;28;20036;-59
2022/08/30 06:50:35;;;;;;;6.72;4.35;;;;;;;23.00;78.07;98652.00;5038901;28;20186;-60
2022/08/30 06:53:04;;;;;;;7.35;4.50;;;;;;;23.08;78.36;98667.59;5030614;28;20033;-59
2022/08/30 06:55:32;;;;;;;;;;;;;;;23.09;77.60;98665.75;5015668;28;20017;-60
2022/08/30 06:57:59;;;;;;;6.22;4.43;;;;;;;23.15;77.60;98663.00;5031304;28;19988;-59
2022/08/30 07:00:24;;;;;;;6.75;4.07;;;;;;;23.19;77.27;98671.34;5034376;28;20242;-58
2022/08/30 07:02:49;;;;;;;5.88;4.10;;;;;;;23.12;76.61;98670.63;5035182;28;20432;-60
2022/08/30 07:05:16;;;;;;;6.95;4.15;;;;;;;23.13;76.90;98670.41;5033081;28;20636;-59
2022/08/30 07:07:42;;;;;;;6.88;4.07;;;;;;;23.02;76.87;98639.31;5031277;28;20150;-59
2022/08/30 07:10:08;;;;;;;5.97;4.32;;;;;;;23.25;76.71;98674.94;5037070;28;20055;-59
2022/08/30 07:12:34;;;;;;;7.35;4.22;;;;;;;23.35;76.88;98677.84;5039216;28;20049;-62
2022/08/30 07:15:02;;;;;;;6.32;4.30;;;;;;;23.31;75.32;98636.88;5018779;28;20075;-60
2022/08/30 07:20:12;;;;;;;6.95;4.15;;;;;;;23.44;74.99;98673.00;5031974;28;20052;-59
2022/08/30 07:22:38;;;;;;;7.93;4.05;;;;;;;23.46;75.48;98679.72;5040968;28;20462;-59
2022/08/30 07:25:03;;;;;;;7.60;4.53;;;;;;;23.49;73.77;98689.06;5037627;28;20037;-59
2022/08/30 07:27:29;;;;;;;6.57;4.10;;;;;;;23.35;74.98;98673.34;5033532;28;20040;-59
2022/08/30 07:29:57;;;;;;;6.10;4.13;;;;;;;23.21;74.98;98634.78;5033093;28;20551;-59
2022/08/30 07:32:22;;;;;;;6.38;3.90;;;;;;;23.40;75.04;98685.91;5028348;28;20029;-60
2022/08/30 07:34:47;;;;;;;6.50;4.05;;;;;;;23.26;75.97;98652.69;5020496;28;20413;-60
2022/08/30 07:37:13;;;;;;;6.28;4.35;;;;;;;23.32;76.03;98655.22;5030620;28;20035;-59
2022/08/30 07:39:38;;;;;;;7.45;4.65;;;;;;;23.51;76.32;98679.03;5035265;28;20611;-60
2022/08/30 07:42:04;;;;;;;10.88;4.47;;;;;;;23.36;75.73;98644.97;5020548;28;20030;-61
2022/08/30 07:44:31;;;;;;;8.38;4.30;;;;;;;23.34;75.61;98628.47;5027676;28;20599;-58
2022/08/30 07:46:56;;;;;;;6.57;4.20;;;;;;;23.68;75.83;98655.31;5039370;28;21288;-60
2022/08/30 07:49:22;;;;;;;7.43;4.10;;;;;;;23.88;75.51;98663.78;5030916;28;20051;-61
2022/08/30 07:51:47;;;;;;;6.35;4.13;;;;;;;23.60;73.96;98609.50;5030439;28;20112;-60
2022/08/30 07:54:13;;;;;;;6.75;3.83;;;;;;;24.11;73.75;98670.13;5029631;28;20724;-60
2022/08/30 07:56:38;;;;;;;6.10;4.40;;;;;;;23.81;73.66;98641.84;5030169;28;20036;-61
2022/08/30 07:59:04;;;;;;;6.22;4.22;;;;;;;23.94;74.45;98659.41;5032974;28;20037;-60
2022/08/30 08:01:30;;;;;;;8.18;4.30;;;;;;;23.70;73.18;98637.31;5031898;28;20527;-59
2022/08/30 08:03:55;;;;;;;6.68;4.38;;;;;;;23.86;73.90;98657.91;5028463;28;20682;-63
2022/08/30 08:06:22;;;;;;;8.00;3.95;;;;;;;23.70;73.19;98629.34;5026203;28;20077;-61
2022/08/30 08:08:48;;;;;;;7.15;4.18;;;;;;;23.94;73.82;98648.78;5015398;28;20071;-60
2022/08/30 08:11:17;;;;;;;6.88;4.25;;;;;;;23.65;72.76;98619.41;5022243;28;20033;-60
2022/08/30 08:13:44;;;;;;;6.30;4.15;;;;;;;23.81;72.73;98656.97;5020409;28;20056;-60
2022/08/30 08:16:09;;;;;;;7.63;4.50;;;;;;;23.48;74.13;98619.28;5019158;28;20044;-60
2022/08/30 08:18:35;;;;;;;7.68;4.38;;;;;;;23.32;74.21;98583.59;5033174;28;20748;-61
2022/08/30 08:21:01;;;;;;;6.57;4.50;;;;;;;23.45;74.18;98606.47;5031320;28;20320;-60
2022/08/30 08:23:27;;;;;;;7.32;4.50;;;;;;;23.81;74.60;98652.47;5029802;28;20029;-61
2022/08/30 08:25:52;;;;;;;6.70;4.13;;;;;;;23.73;74.22;98627.03;5038331;28;20484;-60
2022/08/30 08:28:18;;;;;;;6.20;4.13;;;;;;;23.92;73.74;98656.97;5035704;28;20033;-60
2022/08/30 08:30:44;;;;;;;6.43;4.50;;;;;;;23.98;73.29;98663.22;5014944;28;20036;-61
2022/08/30 08:33:11;;;;;;;7.13;4.13;;;;;;;23.95;73.96;98672.44;5031314;28;20029;-60
2022/08/30 08:35:37;;;;;;;6.40;4.53;;;;;;;23.94;74.68;98680.66;5026838;28;20025;-62
2022/08/30 08:38:03;;;;;;;5.55;4.07;;;;;;;23.89;73.45;98673.34;5028859;28;20711;-60
2022/08/30 08:40:34;;;;;;;6.95;4.30;;;;;;;23.89;73.31;98662.72;5031789;28;20494;-60
2022/08/30 08:43:18;;;;;;;10.25;5.10;;;;;;;23.84;73.99;98675.09;5017956;28;20025;-60
2022/08/30 08:46:21;;;;;;;7.97;4.00;;;;;;;23.84;72.60;98683.03;5020059;28;20036;-62
2022/08/30 08:48:49;;;;;;;6.45;4.28;;;;;;;23.81;72.80;98681.66;5033124;28;20558;-61
2022/08/30 08:54:07;;;;;;;7.25;4.43;;;;;;;23.82;73.29;98688.59;5035730;28;20395;-61
2022/08/30 08:56:33;;;;;;;5.47;3.95;;;;;;;23.84;73.71;98693.66;5021423;28;20024;-59
2022/08/30 08:58:58;;;;;;;6.35;4.80;;;;;;;23.89;73.51;98689.28;5021733;28;20032;-59
2022/08/30 09:01:27;;;;;;;8.23;5.00;;;;;;;23.93;73.07;98694.94;5030121;28;20033;-60
2022/08/30 09:03:54;;;;;;;8.15;4.43;;;;;;;24.00;73.57;98700.97;5039598;28;20107;-59
2022/08/30 09:06:41;;;;;;;8.57;4.53;;;;;;;24.12;72.37;98707.09;5024913;28;20056;-60
2022/08/30 09:09:07;;;;;;;6.88;4.53;;;;;;;24.03;74.17;98705.03;5033574;28;20021;-60
2022/08/30 09:11:35;;;;;;;7.13;4.47;;;;;;;23.92;72.40;98675.56;5030829;28;20074;-60
2022/08/30 09:14:01;;;;;;;6.77;4.63;;;;;;;24.23;72.37;98705.47;5034293;28;20025;-60
2022/08/30 09:16:51;;;;;;;6.57;4.32;;;;;;;24.29;72.05;98703.75;5038179;28;20032;-60
2022/08/30 09:19:27;;;;;;;6.53;4.35;;;;;;;24.29;71.74;98701.88;5030604;28;20495;-59
2022/08/30 09:22:05;;;;;;;6.88;4.35;;;;;;;24.37;72.47;98708.72;5039809;28;20024;-59
2022/08/30 09:25:12;;;;;;;7.30;4.65;;;;;;;24.44;72.95;98709.41;5024816;28;20033;-60
2022/08/30 09:27:42;;;;;;;8.48;5.20;;;;;;;24.54;72.16;98711.50;5033882;28;20837;-60
2022/08/30 09:30:23;;;;;;;8.80;4.82;;;;;;;24.59;69.70;98702.81;5020241;28;20055;-60
2022/08/30 09:32:56;;;;;;;8.80;5.15;;;;;;;24.70;68.98;98688.72;5017375;28;20021;-60
2022/08/30 09:35:40;;;;;;;7.60;5.05;;;;;;;24.73;68.52;98682.91;5033352;28;20079;-60
2022/08/30 09:38:32;;;;;;;8.70;5.30;;;;;;;24.63;68.87;98662.25;5035201;28;20029;-60
2022/08/30 09:41:01;;;;;;;8.43;5.40;;;;;;;24.97;69.12;98691.66;5030593;28;20114;-61
2022/08/30 09:43:32;;;;;;;9.43;5.90;;;;;;;24.97;68.50;98696.13;5019187;28;20611;-62
2022/08/30 09:45:57;;;;;;;10.70;5.50;;;;;;;25.09;67.85;98704.91;5051874;28;20440;-61
2022/08/30 09:48:25;;;;;;;11.10;5.57;;;;;;;24.89;67.50;98670.72;5035148;28;20025;-61
2022/08/30 09:50:58;;;;;;;8.20;5.55;;;;;;;25.06;67.82;98692.88;5025121;28;20263;-61
2022/08/30 09:53:32;;;;;;;11.13;5.30;;;;;;;24.98;67.98;98690.59;5023229;28;20154;-60
2022/08/30 09:56:19;;;;;;;8.48;5.32;;;;;;;24.93;68.49;98690.47;5016138;28;20022;-61
2022/08/30 09:59:04;;;;;;;8.27;6.10;;;;;;;24.84;68.38;98700.69;5015128;28;20942;-60
2022/08/30 10:01:36;;;;;;;7.07;5.47;;;;;;;24.90;68.50;98698.94;5031830;28;20029;-62
2022/08/30 10:04:05;;;;;;;8.45;5.70;;;;;;;24.89;68.55;98690.16;5050244;28;20018;-61
2022/08/30 10:06:34;;;;;;;9.38;5.53;;;;;;;24.83;69.11;98690.31;5027633;28;20029;-59
2022/08/30 10:09:12;;;;;;;9.02;6.20;;;;;;;24.63;68.99;98650.81;5029792;28;20546;-60
2022/08/30 10:11:56;;;;;;;8.13;5.70;;;;;;;24.80;69.17;98688.91;5038861;28;20040;-61
2022/08/30 10:15:04;;;;;;;7.93;5.85;;;;;;;24.80;69.40;98685.44;5030185;28;20119;-61
2022/08/30 10:17:51;;;;;;;7.82;5.55;;;;;;;24.54;69.65;98658.34;5025344;28;20075;-61
2022/08/30 10:20:24;;;;;;;7.95;6.07;;;;;;;24.80;69.53;98690.75;5031599;28;20588;-64
2022/08/30 10:22:55;;;;;;;7.53;5.45;;;;;;;24.81;69.84;98677.22;5031468;28;20076;-59
2022/08/30 10:25:30;;;;;;;7.88;5.60;;;;;;;24.78;69.77;98684.88;5021133;28;20025;-60
2022/08/30 10:28:02;;;;;;;10.52;6.20;;;;;;;24.74;70.09;98680.03;5032735;28;20108;-60
2022/08/30 10:30:30;;;;;;;9.43;5.88;;;;;;;24.79;70.29;98681.97;5035560;28;20416;-61
2022/08/30 10:33:13;;;;;;;10.48;6.28;;;;;;;24.77;69.94;98670.78;5024458;28;20280;-60
2022/08/30 10:35:45;;;;;;;7.20;5.70;;;;;;;24.84;69.79;98682.06;5025740;28;20056;-60
2022/08/30 10:38:38;;;;;;;10.68;6.22;;;;;;;24.98;69.15;98679.94;5010337;28;20507;-61
2022/08/30 10:41:23;;;;;;;9.20;6.05;;;;;;;24.89;69.54;98684.81;5005883;28;20033;-61
2022/08/30 10:44:00;;;;;;;9.18;6.95;;;;;;;24.85;69.96;98690.88;5045526;28;20029;-60
2022/08/30 10:46:37;;;;;;;9.48;5.63;;;;;;;24.89;70.23;98697.31;5030441;28;20040;-61
2022/08/30 10:49:05;;;;;;;7.45;5.50;;;;;;;24.97;69.93;98698.78;5030224;28;20033;-60
2022/08/30 10:51:34;;;;;;;10.15;6.13;;;;;;;25.07;69.74;98689.16;5013928;28;20468;-61
2022/08/30 10:54:07;;;;;;;11.05;7.00;;;;;;;24.97;69.74;98691.66;5042243;28;20037;-62
2022/08/30 10:56:34;;;;;;;9.90;6.57;;;;;;;25.09;70.24;98686.28;5025135;28;20048;-60
2022/08/30 10:59:03;;;;;;;10.40;6.97;;;;;;;25.24;69.43;98675.13;5009830;28;20036;-59
2022/08/30 11:01:35;;;;;;;8.15;6.63;;;;;;;25.38;68.59;98678.31;5022944;28;20029;-60
2022/08/30 11:04:38;;;;;;;8.00;6.35;;;;;;;25.59;67.98;98674.97;5028452;28;20040;-61
2022/08/30 11:07:21;;;;;;;9.43;6.43;;;;;;;25.70;68.20;98667.91;5028401;28;20021;-60
2022/08/30 11:09:55;;;;;;;9.57;6.85;;;;;;;25.64;67.42;98629.75;5029565;28;20022;-61
2022/08/30 11:12:27;;;;;;;10.32;6.93;;;;;;;25.78;66.70;98659.53;5026513;28;20039;-60
2022/08/30 11:14:53;;;;;;;9.38;7.00;;;;;;;25.93;67.08;98656.31;4975959;28;20021;-60
2022/08/30 11:17:34;;;;;;;11.27;7.28;;;;;;;25.95;66.41;98653.44;5027559;28;20395;-60
2022/08/30 11:20:01;;;;;;;10.70;7.18;;;;;;;25.94;66.79;98638.47;5030740;28;20028;-60
2022/08/30 11:22:36;;;;;;;12.57;7.35;;;;;;;26.10;65.92;98634.97;5023454;28;20111;-63
2022/08/30 11:25:10;;;;;;;11.45;8.15;;;;;;;26.19;64.68;98643.38;5033881;28;20029;-60
2022/08/30 11:27:57;;;;;;;9.85;7.65;;;;;;;26.25;64.62;98635.22;5015400;28;20040;-62
2022/08/30 11:30:25;;;;;;;11.80;7.00;;;;;;;26.17;65.07;98640.94;5022788;28;20020;-60
2022/08/30 11:33:04;;;;;;;9.25;7.05;;;;;;;26.10;65.52;98645.63;5017093;28;20026;-60
2022/08/30 11:35:51;;;;;;;9.93;6.80;;;;;;;26.09;65.59;98644.03;5038631;28;20017;-61
2022/08/30 11:38:25;;;;;;;10.60;6.63;;;;;;;25.90;66.15;98638.97;5031026;28;20100;-61
2022/08/30 11:41:11;;;;;;;12.02;6.30;;;;;;;25.91;65.99;98639.75;5032758;28;20158;-61
2022/08/30 11:43:38;;;;;;;12.50;6.50;;;;;;;25.79;66.36;98639.03;5033202;28;20049;-60
2022/08/30 11:46:15;;;;;;;10.60;6.35;;;;;;;25.73;66.76;98640.03;5036232;28;20102;-62
2022/08/30 11:48:47;;;;;;;9.57;5.75;;;;;;;25.66;66.42;98638.31;5030069;28;20103;-63
2022/08/30 11:51:43;;;;;;;9.77;6.72;;;;;;;25.63;66.81;98625.50;5016046;28;20380;-60